Terminal Aerodrome Forecast
Issued by NWS Tuscon, AZ

Home | Current Version | Previous Version | Text Only | Print | Product List | Glossary On
Versions: 1 2 3 4 5 6 7 8 9 10 11 12
195
FTUS45 KTWC 021741
TAFDUG
TAF
KDUG 021741Z 0218/0318 20011KT P6SM FEW070
     FM022000 19013G22KT P6SM SCT070 BKN120
     FM030000 22010KT P6SM VCSH SCT060 OVC100
     FM030300 35007KT P6SM -SHRA SCT040 OVC080
     FM031200 04009KT P6SM FEW030 SCT050 BKN080=

USA.gov is the U.S. government's official web portal to all federal, state and local government web resources and services.